sensor_id;sensor_type;location;lat;lon;timestamp;pressure;altitude;pressure_sealevel;temperature;humidity
45050;BME280;61798;48.048;-1.928;2023-04-22T00:00:47;99665.75;;;7.82;100.00
45050;BME280;61798;48.048;-1.928;2023-04-22T00:02:53;99620.94;;;7.57;100.00
45050;BME280;61798;48.048;-1.928;2023-04-22T00:05:00;99670.69;;;7.85;100.00
45050;BME280;61798;48.048;-1.928;2023-04-22T00:07:07;99657.06;;;7.66;100.00
45050;BME280;61798;48.048;-1.928;2023-04-22T00:09:16;99630.72;;;7.43;100.00
45050;BME280;61798;48.048;-1.928;2023-04-22T00:11:24;99639.22;;;7.60;100.00
45050;BME280;61798;48.048;-1.928;2023-04-22T00:13:30;99625.47;;;7.56;100.00
45050;BME280;61798;48.048;-1.928;2023-04-22T00:15:37;99643.34;;;7.69;100.00
45050;BME280;61798;48.048;-1.928;2023-04-22T00:17:43;99612.75;;;7.65;100.00
45050;BME280;61798;48.048;-1.928;2023-04-22T00:19:51;99636.84;;;7.92;100.00
45050;BME280;61798;48.048;-1.928;2023-04-22T00:21:57;99591.59;;;7.57;100.00
45050;BME280;61798;48.048;-1.928;2023-04-22T00:24:05;99620.59;;;7.80;100.00
45050;BME280;61798;48.048;-1.928;2023-04-22T00:26:10;99634.63;;;7.96;100.00
45050;BME280;61798;48.048;-1.928;2023-04-22T00:28:16;99617.94;;;7.80;100.00
45050;BME280;61798;48.048;-1.928;2023-04-22T00:30:23;99588.41;;;7.82;100.00
45050;BME280;61798;48.048;-1.928;2023-04-22T00:32:30;99626.41;;;8.04;100.00
45050;BME280;61798;48.048;-1.928;2023-04-22T00:34:37;99627.88;;;8.07;100.00
45050;BME280;61798;48.048;-1.928;2023-04-22T00:36:43;99624.72;;;7.83;100.00
45050;BME280;61798;48.048;-1.928;2023-04-22T00:38:50;99614.84;;;7.77;100.00
45050;BME280;61798;48.048;-1.928;2023-04-22T00:40:56;99622.66;;;7.78;100.00
45050;BME280;61798;48.048;-1.928;2023-04-22T00:43:02;99635.22;;;7.91;100.00
45050;BME280;61798;48.048;-1.928;2023-04-22T00:45:11;99603.34;;;7.69;100.00
45050;BME280;61798;48.048;-1.928;2023-04-22T00:47:21;99593.06;;;7.66;100.00
45050;BME280;61798;48.048;-1.928;2023-04-22T00:49:33;99592.50;;;7.78;100.00
45050;BME280;61798;48.048;-1.928;2023-04-22T00:51:39;99581.56;;;7.59;100.00
45050;BME280;61798;48.048;-1.928;2023-04-22T00:53:47;99598.00;;;7.69;100.00
45050;BME280;61798;48.048;-1.928;2023-04-22T00:55:53;99597.16;;;7.62;100.00
45050;BME280;61798;48.048;-1.928;2023-04-22T00:57:59;99587.31;;;7.56;100.00
45050;BME280;61798;48.048;-1.928;2023-04-22T01:00:08;99605.81;;;7.64;100.00
45050;BME280;61798;48.048;-1.928;2023-04-22T01:02:14;99597.16;;;7.62;100.00
45050;BME280;61798;48.048;-1.928;2023-04-22T01:04:20;99591.00;;;7.61;100.00
45050;BME280;61798;48.048;-1.928;2023-04-22T01:06:29;99591.44;;;7.65;100.00
45050;BME280;61798;48.048;-1.928;2023-04-22T01:08:36;99568.59;;;7.49;100.00
45050;BME280;61798;48.048;-1.928;2023-04-22T01:10:43;99568.88;;;7.68;100.00
45050;BME280;61798;48.048;-1.928;2023-04-22T01:12:50;99566.41;;;7.59;100.00
45050;BME280;61798;48.048;-1.928;2023-04-22T01:14:56;99579.13;;;7.64;100.00
45050;BME280;61798;48.048;-1.928;2023-04-22T01:17:01;99549.50;;;7.45;100.00
45050;BME280;61798;48.048;-1.928;2023-04-22T01:19:10;99577.06;;;7.66;100.00
45050;BME280;61798;48.048;-1.928;2023-04-22T01:21:16;99569.47;;;7.63;100.00
45050;BME280;61798;48.048;-1.928;2023-04-22T01:23:24;99559.59;;;7.57;100.00
45050;BME280;61798;48.048;-1.928;2023-04-22T01:25:30;99554.91;;;7.59;100.00
45050;BME280;61798;48.048;-1.928;2023-04-22T01:27:37;99559.41;;;7.58;100.00
45050;BME280;61798;48.048;-1.928;2023-04-22T01:29:45;99571.75;;;7.66;100.00
45050;BME280;61798;48.048;-1.928;2023-04-22T01:31:52;99560.25;;;7.59;100.00
45050;BME280;61798;48.048;-1.928;2023-04-22T01:33:59;99551.84;;;7.62;100.00
45050;BME280;61798;48.048;-1.928;2023-04-22T01:36:06;99571.75;;;7.66;100.00
45050;BME280;61798;48.048;-1.928;2023-04-22T01:38:12;99587.75;;;7.73;100.00
45050;BME280;61798;48.048;-1.928;2023-04-22T01:40:20;99581.59;;;7.72;100.00
45050;BME280;61798;48.048;-1.928;2023-04-22T01:42:27;99625.16;;;7.93;100.00
45050;BME280;61798;48.048;-1.928;2023-04-22T01:44:34;99625.16;;;7.87;100.00
45050;BME280;61798;48.048;-1.928;2023-04-22T01:46:40;99638.66;;;7.71;100.00
45050;BME280;61798;48.048;-1.928;2023-04-22T01:48:46;99626.69;;;7.60;100.00
45050;BME280;61798;48.048;-1.928;2023-04-22T01:50:57;99621.50;;;7.45;100.00
45050;BME280;61798;48.048;-1.928;2023-04-22T01:53:03;99647.16;;;7.53;100.00
45050;BME280;61798;48.048;-1.928;2023-04-22T01:55:13;99595.88;;;7.44;100.00
45050;BME280;61798;48.048;-1.928;2023-04-22T01:57:19;99642.25;;;7.57;100.00
45050;BME280;61798;48.048;-1.928;2023-04-22T01:59:26;99638.53;;;7.44;100.00
45050;BME280;61798;48.048;-1.928;2023-04-22T02:01:31;99631.78;;;7.48;100.00
45050;BME280;61798;48.048;-1.928;2023-04-22T02:03:38;99640.00;;;7.54;100.00
45050;BME280;61798;48.048;-1.928;2023-04-22T02:05:45;99629.91;;;7.49;100.00
45050;BME280;61798;48.048;-1.928;2023-04-22T02:07:52;99615.13;;;7.39;100.00
45050;BME280;61798;48.048;-1.928;2023-04-22T02:09:59;99642.47;;;7.55;100.00
45050;BME280;61798;48.048;-1.928;2023-04-22T02:12:07;99624.97;;;7.39;100.00
45050;BME280;61798;48.048;-1.928;2023-04-22T02:14:12;99633.97;;;7.38;100.00
45050;BME280;61798;48.048;-1.928;2023-04-22T02:16:18;99594.91;;;7.59;100.00
45050;BME280;61798;48.048;-1.928;2023-04-22T02:18:25;99585.56;;;7.34;100.00
45050;BME280;61798;48.048;-1.928;2023-04-22T02:20:31;99618.06;;;7.51;100.00
45050;BME280;61798;48.048;-1.928;2023-04-22T02:22:37;99614.75;;;7.49;100.00
45050;BME280;61798;48.048;-1.928;2023-04-22T02:24:47;99552.16;;;7.38;100.00
45050;BME280;61798;48.048;-1.928;2023-04-22T02:26:52;99554.41;;;7.42;100.00
45050;BME280;61798;48.048;-1.928;2023-04-22T02:28:58;99618.69;;;7.60;100.00
45050;BME280;61798;48.048;-1.928;2023-04-22T02:31:04;99620.03;;;7.36;100.00
45050;BME280;61798;48.048;-1.928;2023-04-22T02:33:10;99626.19;;;7.36;100.00
45050;BME280;61798;48.048;-1.928;2023-04-22T02:35:17;99594.63;;;7.40;100.00
45050;BME280;61798;48.048;-1.928;2023-04-22T02:37:23;99606.91;;;7.41;100.00
45050;BME280;61798;48.048;-1.928;2023-04-22T02:39:30;99620.88;;;7.43;100.00
45050;BME280;61798;48.048;-1.928;2023-04-22T02:41:36;99618.38;;;7.35;100.00
45050;BME280;61798;48.048;-1.928;2023-04-22T02:43:43;99620.28;;;7.48;100.00
45050;BME280;61798;48.048;-1.928;2023-04-22T02:45:50;99612.63;;;7.31;100.00
45050;BME280;61798;48.048;-1.928;2023-04-22T02:47:56;99605.84;;;7.28;100.00
45050;BME280;61798;48.048;-1.928;2023-04-22T02:50:04;99606.97;;;7.55;100.00
45050;BME280;61798;48.048;-1.928;2023-04-22T02:52:10;99583.91;;;7.33;100.00
45050;BME280;61798;48.048;-1.928;2023-04-22T02:54:17;99611.63;;;7.39;100.00
45050;BME280;61798;48.048;-1.928;2023-04-22T02:56:24;99592.22;;;7.59;100.00
45050;BME280;61798;48.048;-1.928;2023-04-22T02:58:33;99603.75;;;7.66;100.00
45050;BME280;61798;48.048;-1.928;2023-04-22T03:00:39;99603.16;;;7.78;100.00
45050;BME280;61798;48.048;-1.928;2023-04-22T03:02:44;99577.31;;;7.71;100.00
45050;BME280;61798;48.048;-1.928;2023-04-22T03:04:52;99599.41;;;7.65;100.00
45050;BME280;61798;48.048;-1.928;2023-04-22T03:06:58;99588.34;;;7.68;100.00
45050;BME280;61798;48.048;-1.928;2023-04-22T03:09:06;99600.75;;;7.40;100.00
45050;BME280;61798;48.048;-1.928;2023-04-22T03:11:12;99583.72;;;7.35;100.00
45050;BME280;61798;48.048;-1.928;2023-04-22T03:13:18;99601.25;;;7.58;100.00
45050;BME280;61798;48.048;-1.928;2023-04-22T03:15:25;99585.38;;;7.36;100.00
45050;BME280;61798;48.048;-1.928;2023-04-22T03:17:31;99605.47;;;7.38;100.00
45050;BME280;61798;48.048;-1.928;2023-04-22T03:19:38;99605.50;;;7.45;100.00
45050;BME280;61798;48.048;-1.928;2023-04-22T03:21:44;99618.34;;;7.77;100.00
45050;BME280;61798;48.048;-1.928;2023-04-22T03:23:50;99598.97;;;7.48;100.00
45050;BME280;61798;48.048;-1.928;2023-04-22T03:25:57;99574.56;;;7.44;100.00
45050;BME280;61798;48.048;-1.928;2023-04-22T03:28:03;99623.16;;;7.53;100.00
45050;BME280;61798;48.048;-1.928;2023-04-22T03:30:10;99618.38;;;7.35;100.00
45050;BME280;61798;48.048;-1.928;2023-04-22T03:32:16;99605.91;;;7.42;100.00
45050;BME280;61798;48.048;-1.928;2023-04-22T03:34:23;99603.22;;;7.35;100.00
45050;BME280;61798;48.048;-1.928;2023-04-22T03:36:29;99570.00;;;6.95;100.00
45050;BME280;61798;48.048;-1.928;2023-04-22T03:38:35;99572.69;;;7.02;100.00
45050;BME280;61798;48.048;-1.928;2023-04-22T03:40:42;99587.06;;;7.44;100.00
45050;BME280;61798;48.048;-1.928;2023-04-22T03:42:48;99593.81;;;7.46;100.00
45050;BME280;61798;48.048;-1.928;2023-04-22T03:44:55;99600.28;;;7.30;100.00
45050;BME280;61798;48.048;-1.928;2023-04-22T03:47:01;99608.81;;;7.47;100.00
45050;BME280;61798;48.048;-1.928;2023-04-22T03:49:08;99568.38;;;7.01;100.00
45050;BME280;61798;48.048;-1.928;2023-04-22T03:51:13;99598.69;;;7.36;100.00
45050;BME280;61798;48.048;-1.928;2023-04-22T03:53:19;99594.22;;;7.43;100.00
45050;BME280;61798;48.048;-1.928;2023-04-22T03:55:26;99606.91;;;7.41;100.00
45050;BME280;61798;48.048;-1.928;2023-04-22T03:57:32;99571.19;;;7.28;100.00
45050;BME280;61798;48.048;-1.928;2023-04-22T03:59:39;99609.25;;;7.58;100.00
45050;BME280;61798;48.048;-1.928;2023-04-22T04:01:45;99597.66;;;7.37;100.00
45050;BME280;61798;48.048;-1.928;2023-04-22T04:03:51;99604.63;;;7.31;100.00
45050;BME280;61798;48.048;-1.928;2023-04-22T04:05:58;99604.75;;;7.16;100.00
45050;BME280;61798;48.048;-1.928;2023-04-22T04:08:05;99585.38;;;7.00;100.00
45050;BME280;61798;48.048;-1.928;2023-04-22T04:10:12;99603.88;;;7.08;100.00
45050;BME280;61798;48.048;-1.928;2023-04-22T04:12:19;99597.38;;;7.18;100.00
45050;BME280;61798;48.048;-1.928;2023-04-22T04:14:25;99599.84;;;7.19;100.00
45050;BME280;61798;48.048;-1.928;2023-04-22T04:16:30;99610.56;;;7.33;100.00
45050;BME280;61798;48.048;-1.928;2023-04-22T04:18:38;99603.00;;;7.37;100.00
45050;BME280;61798;48.048;-1.928;2023-04-22T04:20:43;99596.81;;;7.29;100.00
45050;BME280;61798;48.048;-1.928;2023-04-22T04:22:49;99559.91;;;6.91;100.00
45050;BME280;61798;48.048;-1.928;2023-04-22T04:24:56;99611.34;;;7.27;100.00
45050;BME280;61798;48.048;-1.928;2023-04-22T04:27:02;99578.38;;;7.35;100.00
45050;BME280;61798;48.048;-1.928;2023-04-22T04:29:09;99596.13;;;7.21;100.00
45050;BME280;61798;48.048;-1.928;2023-04-22T04:31:15;99556.69;;;7.02;100.00
45050;BME280;61798;48.048;-1.928;2023-04-22T04:33:21;99544.75;;;6.91;100.00
45050;BME280;61798;48.048;-1.928;2023-04-22T04:35:28;99585.06;;;7.17;100.00
45050;BME280;61798;48.048;-1.928;2023-04-22T04:37:35;99584.53;;;7.28;100.00
45050;BME280;61798;48.048;-1.928;2023-04-22T04:39:43;99585.84;;;7.11;100.00
45050;BME280;61798;48.048;-1.928;2023-04-22T04:41:50;99591.38;;;7.09;100.00
45050;BME280;61798;48.048;-1.928;2023-04-22T04:44:01;99577.16;;;6.95;100.00
45050;BME280;61798;48.048;-1.928;2023-04-22T04:46:07;99589.94;;;7.06;100.00
45050;BME280;61798;48.048;-1.928;2023-04-22T04:48:13;99576.00;;;7.04;100.00
45050;BME280;61798;48.048;-1.928;2023-04-22T04:50:20;99591.19;;;7.11;100.00
45050;BME280;61798;48.048;-1.928;2023-04-22T04:52:26;99595.72;;;7.17;100.00
45050;BME280;61798;48.048;-1.928;2023-04-22T04:54:33;99584.56;;;7.00;100.00
45050;BME280;61798;48.048;-1.928;2023-04-22T04:56:39;99584.50;;;6.93;100.00
45050;BME280;61798;48.048;-1.928;2023-04-22T04:58:46;99585.53;;;6.92;100.00
45050;BME280;61798;48.048;-1.928;2023-04-22T05:00:52;99545.59;;;6.63;100.00
45050;BME280;61798;48.048;-1.928;2023-04-22T05:02:57;99593.53;;;6.92;100.00
45050;BME280;61798;48.048;-1.928;2023-04-22T05:05:05;99609.16;;;7.02;100.00
45050;BME280;61798;48.048;-1.928;2023-04-22T05:07:11;99607.16;;;7.11;100.00
45050;BME280;61798;48.048;-1.928;2023-04-22T05:09:18;99612.34;;;7.19;100.00
45050;BME280;61798;48.048;-1.928;2023-04-22T05:11:24;99616.25;;;7.23;100.00
45050;BME280;61798;48.048;-1.928;2023-04-22T05:13:30;99592.56;;;7.00;100.00
45050;BME280;61798;48.048;-1.928;2023-04-22T05:15:37;99600.94;;;6.96;100.00
45050;BME280;61798;48.048;-1.928;2023-04-22T05:17:43;99617.72;;;6.97;100.00
45050;BME280;61798;48.048;-1.928;2023-04-22T05:19:50;99598.34;;;6.81;100.00
45050;BME280;61798;48.048;-1.928;2023-04-22T05:21:55;99615.22;;;6.89;100.00
45050;BME280;61798;48.048;-1.928;2023-04-22T05:24:03;99611.63;;;7.03;100.00
45050;BME280;61798;48.048;-1.928;2023-04-22T05:26:08;99623.34;;;7.09;100.00
45050;BME280;61798;48.048;-1.928;2023-04-22T05:28:14;99620.81;;;7.01;100.00
45050;BME280;61798;48.048;-1.928;2023-04-22T05:30:22;99621.47;;;7.03;100.00
45050;BME280;61798;48.048;-1.928;2023-04-22T05:32:27;99611.28;;;7.13;100.00
45050;BME280;61798;48.048;-1.928;2023-04-22T05:34:34;99623.63;;;7.21;100.00
45050;BME280;61798;48.048;-1.928;2023-04-22T05:36:40;99615.84;;;7.19;100.00
45050;BME280;61798;48.048;-1.928;2023-04-22T05:38:46;99574.72;;;7.00;100.00
45050;BME280;61798;48.048;-1.928;2023-04-22T05:40:54;99632.50;;;7.28;100.00
45050;BME280;61798;48.048;-1.928;2023-04-22T05:43:01;99622.53;;;7.44;100.00
45050;BME280;61798;48.048;-1.928;2023-04-22T05:45:10;99626.44;;;7.48;100.00
45050;BME280;61798;48.048;-1.928;2023-04-22T05:47:17;99644.06;;;7.49;100.00
45050;BME280;61798;48.048;-1.928;2023-04-22T05:49:23;99636.59;;;7.31;100.00
45050;BME280;61798;48.048;-1.928;2023-04-22T05:51:32;99628.31;;;7.19;100.00
45050;BME280;61798;48.048;-1.928;2023-04-22T05:53:39;99638.47;;;7.37;100.00
45050;BME280;61798;48.048;-1.928;2023-04-22T05:55:46;99649.78;;;7.39;100.00
45050;BME280;61798;48.048;-1.928;2023-04-22T05:57:53;99646.03;;;7.34;100.00
45050;BME280;61798;48.048;-1.928;2023-04-22T06:00:02;99645.19;;;7.26;100.00
45050;BME280;61798;48.048;-1.928;2023-04-22T06:02:08;99636.28;;;7.48;100.00
45050;BME280;61798;48.048;-1.928;2023-04-22T06:04:17;99657.88;;;7.60;100.00
45050;BME280;61798;48.048;-1.928;2023-04-22T06:06:24;99660.31;;;7.55;100.00
45050;BME280;61798;48.048;-1.928;2023-04-22T06:08:30;99665.41;;;7.49;100.00
45050;BME280;61798;48.048;-1.928;2023-04-22T06:10:37;99678.38;;;7.59;100.00
45050;BME280;61798;48.048;-1.928;2023-04-22T06:12:45;99679.16;;;7.53;100.00
45050;BME280;61798;48.048;-1.928;2023-04-22T06:14:54;99677.97;;;7.63;100.00
45050;BME280;61798;48.048;-1.928;2023-04-22T06:17:01;99677.75;;;7.57;100.00
45050;BME280;61798;48.048;-1.928;2023-04-22T06:19:08;99664.41;;;7.57;100.00
45050;BME280;61798;48.048;-1.928;2023-04-22T06:21:15;99689.53;;;7.77;100.00
45050;BME280;61798;48.048;-1.928;2023-04-22T06:23:22;99659.34;;;7.69;100.00
45050;BME280;61798;48.048;-1.928;2023-04-22T06:25:30;99690.16;;;7.79;100.00
45050;BME280;61798;48.048;-1.928;2023-04-22T06:27:38;99675.81;;;7.80;100.00
45050;BME280;61798;48.048;-1.928;2023-04-22T06:29:44;99693.28;;;7.89;100.00
45050;BME280;61798;48.048;-1.928;2023-04-22T06:31:51;99690.41;;;7.84;100.00
45050;BME280;61798;48.048;-1.928;2023-04-22T06:34:00;99679.06;;;7.75;100.00
45050;BME280;61798;48.048;-1.928;2023-04-22T06:36:07;99699.84;;;7.87;100.00
45050;BME280;61798;48.048;-1.928;2023-04-22T06:38:15;99709.13;;;7.98;100.00
45050;BME280;61798;48.048;-1.928;2023-04-22T06:40:22;99702.78;;;7.99;100.00
45050;BME280;61798;48.048;-1.928;2023-04-22T06:42:28;99695.78;;;8.04;100.00
45050;BME280;61798;48.048;-1.928;2023-04-22T06:44:35;99705.19;;;7.93;100.00
45050;BME280;61798;48.048;-1.928;2023-04-22T06:46:42;99711.09;;;7.82;100.00
45050;BME280;61798;48.048;-1.928;2023-04-22T06:48:49;99728.81;;;7.97;100.00
45050;BME280;61798;48.048;-1.928;2023-04-22T06:50:56;99715.31;;;8.05;100.00
45050;BME280;61798;48.048;-1.928;2023-04-22T06:53:03;99725.53;;;7.95;100.00
45050;BME280;61798;48.048;-1.928;2023-04-22T06:55:10;99718.38;;;8.02;100.00
45050;BME280;61798;48.048;-1.928;2023-04-22T06:57:17;99705.44;;;7.99;100.00
45050;BME280;61798;48.048;-1.928;2023-04-22T06:59:23;99701.34;;;8.03;100.00
45050;BME280;61798;48.048;-1.928;2023-04-22T07:01:31;99691.75;;;8.22;100.00
45050;BME280;61798;48.048;-1.928;2023-04-22T07:03:37;99700.66;;;8.43;100.00
45050;BME280;61798;48.048;-1.928;2023-04-22T07:05:44;99681.94;;;8.36;100.00
45050;BME280;61798;48.048;-1.928;2023-04-22T07:07:52;99701.25;;;8.45;100.00
45050;BME280;61798;48.048;-1.928;2023-04-22T07:09:59;99681.84;;;8.09;100.00
45050;BME280;61798;48.048;-1.928;2023-04-22T07:12:06;99667.94;;;8.21;100.00
45050;BME280;61798;48.048;-1.928;2023-04-22T07:14:12;99687.31;;;8.50;100.00
45050;BME280;61798;48.048;-1.928;2023-04-22T07:16:19;99683.34;;;8.32;100.00
45050;BME280;61798;48.048;-1.928;2023-04-22T07:18:27;99687.72;;;8.47;100.00
45050;BME280;61798;48.048;-1.928;2023-04-22T07:20:34;99662.25;;;8.51;100.00
45050;BME280;61798;48.048;-1.928;2023-04-22T07:22:41;99702.97;;;8.67;100.00
45050;BME280;61798;48.048;-1.928;2023-04-22T07:24:47;99700.13;;;8.75;100.00
45050;BME280;61798;48.048;-1.928;2023-04-22T07:26:52;99704.66;;;8.95;100.00
45050;BME280;61798;48.048;-1.928;2023-04-22T07:28:59;99700.94;;;8.83;100.00
45050;BME280;61798;48.048;-1.928;2023-04-22T07:31:06;99692.94;;;8.83;100.00
45050;BME280;61798;48.048;-1.928;2023-04-22T07:33:14;99690.66;;;8.93;100.00
45050;BME280;61798;48.048;-1.928;2023-04-22T07:35:21;99689.63;;;9.08;100.00
45050;BME280;61798;48.048;-1.928;2023-04-22T07:37:28;99694.13;;;9.41;100.00
45050;BME280;61798;48.048;-1.928;2023-04-22T07:39:35;99694.28;;;9.54;100.00
45050;BME280;61798;48.048;-1.928;2023-04-22T07:41:42;99694.31;;;9.33;100.00
45050;BME280;61798;48.048;-1.928;2023-04-22T07:43:49;99703.38;;;9.46;100.00
45050;BME280;61798;48.048;-1.928;2023-04-22T07:45:56;99697.78;;;9.54;100.00
45050;BME280;61798;48.048;-1.928;2023-04-22T07:48:03;99686.00;;;9.69;100.00
45050;BME280;61798;48.048;-1.928;2023-04-22T07:50:11;99706.16;;;9.71;100.00
45050;BME280;61798;48.048;-1.928;2023-04-22T07:52:18;99660.13;;;9.56;100.00
45050;BME280;61798;48.048;-1.928;2023-04-22T07:54:26;99700.38;;;9.81;100.00
45050;BME280;61798;48.048;-1.928;2023-04-22T07:56:33;99689.25;;;9.84;100.00
45050;BME280;61798;48.048;-1.928;2023-04-22T07:58:41;99658.91;;;9.58;100.00
45050;BME280;61798;48.048;-1.928;2023-04-22T08:00:46;99702.81;;;9.90;100.00
45050;BME280;61798;48.048;-1.928;2023-04-22T08:02:53;99710.06;;;9.82;100.00
45050;BME280;61798;48.048;-1.928;2023-04-22T08:04:59;99717.41;;;10.01;100.00
45050;BME280;61798;48.048;-1.928;2023-04-22T08:07:06;99719.00;;;10.09;100.00
45050;BME280;61798;48.048;-1.928;2023-04-22T08:09:12;99718.28;;;10.27;100.00
45050;BME280;61798;48.048;-1.928;2023-04-22T08:11:19;99712.69;;;10.42;100.00
45050;BME280;61798;48.048;-1.928;2023-04-22T08:13:25;99716.06;;;10.63;100.00
45050;BME280;61798;48.048;-1.928;2023-04-22T08:15:32;99691.09;;;10.70;100.00
45050;BME280;61798;48.048;-1.928;2023-04-22T08:17:39;99693.41;;;10.66;100.00
45050;BME280;61798;48.048;-1.928;2023-04-22T08:19:47;99701.22;;;10.93;100.00
45050;BME280;61798;48.048;-1.928;2023-04-22T08:21:55;99692.25;;;11.06;100.00
45050;BME280;61798;48.048;-1.928;2023-04-22T08:24:02;99694.50;;;11.09;100.00
45050;BME280;61798;48.048;-1.928;2023-04-22T08:26:09;99699.72;;;11.23;100.00
45050;BME280;61798;48.048;-1.928;2023-04-22T08:28:19;99686.78;;;10.94;100.00
45050;BME280;61798;48.048;-1.928;2023-04-22T08:30:25;99702.69;;;11.15;100.00
45050;BME280;61798;48.048;-1.928;2023-04-22T08:32:32;99706.16;;;11.22;100.00
45050;BME280;61798;48.048;-1.928;2023-04-22T08:34:39;99694.97;;;11.25;100.00
45050;BME280;61798;48.048;-1.928;2023-04-22T08:36:47;99700.25;;;11.13;100.00
45050;BME280;61798;48.048;-1.928;2023-04-22T08:38:53;99699.63;;;11.11;100.00
45050;BME280;61798;48.048;-1.928;2023-04-22T08:41:00;99688.59;;;11.00;100.00
45050;BME280;61798;48.048;-1.928;2023-04-22T08:43:09;99677.38;;;10.85;100.00
45050;BME280;61798;48.048;-1.928;2023-04-22T08:45:17;99716.28;;;11.39;100.00
45050;BME280;61798;48.048;-1.928;2023-04-22T08:47:24;99719.22;;;11.56;100.00
45050;BME280;61798;48.048;-1.928;2023-04-22T08:49:34;99722.53;;;11.58;100.00
45050;BME280;61798;48.048;-1.928;2023-04-22T08:51:41;99707.44;;;11.38;100.00
45050;BME280;61798;48.048;-1.928;2023-04-22T08:53:49;99730.03;;;11.68;100.00
45050;BME280;61798;48.048;-1.928;2023-04-22T08:55:57;99711.69;;;11.46;100.00
45050;BME280;61798;48.048;-1.928;2023-04-22T08:58:03;99722.47;;;11.39;100.00
45050;BME280;61798;48.048;-1.928;2023-04-22T09:00:12;99722.44;;;11.65;100.00
45050;BME280;61798;48.048;-1.928;2023-04-22T09:02:20;99703.41;;;11.48;100.00
45050;BME280;61798;48.048;-1.928;2023-04-22T09:04:28;99736.31;;;11.62;100.00
45050;BME280;61798;48.048;-1.928;2023-04-22T09:06:37;99725.56;;;11.62;100.00
45050;BME280;61798;48.048;-1.928;2023-04-22T09:08:46;99731.22;;;11.72;100.00
45050;BME280;61798;48.048;-1.928;2023-04-22T09:10:53;99743.00;;;11.90;100.00
45050;BME280;61798;48.048;-1.928;2023-04-22T09:13:02;99733.38;;;11.82;100.00
45050;BME280;61798;48.048;-1.928;2023-04-22T09:15:10;99734.28;;;11.95;100.00
45050;BME280;61798;48.048;-1.928;2023-04-22T09:17:31;99722.13;;;11.92;100.00
45050;BME280;61798;48.048;-1.928;2023-04-22T09:19:39;99732.25;;;11.90;100.00
45050;BME280;61798;48.048;-1.928;2023-04-22T09:21:45;99731.09;;;12.05;100.00
45050;BME280;61798;48.048;-1.928;2023-04-22T09:23:54;99753.25;;;12.19;100.00
45050;BME280;61798;48.048;-1.928;2023-04-22T09:26:03;99735.00;;;12.02;100.00
45050;BME280;61798;48.048;-1.928;2023-04-22T09:28:16;99742.53;;;12.31;100.00
45050;BME280;61798;48.048;-1.928;2023-04-22T09:30:33;99740.44;;;12.14;100.00
45050;BME280;61798;48.048;-1.928;2023-04-22T09:32:40;99735.63;;;12.23;100.00
45050;BME280;61798;48.048;-1.928;2023-04-22T09:34:54;99741.59;;;12.25;100.00
45050;BME280;61798;48.048;-1.928;2023-04-22T09:36:59;99730.16;;;12.11;100.00
45050;BME280;61798;48.048;-1.928;2023-04-22T09:39:06;99712.72;;;12.21;100.00
45050;BME280;61798;48.048;-1.928;2023-04-22T09:41:13;99733.00;;;12.35;100.00
45050;BME280;61798;48.048;-1.928;2023-04-22T09:43:20;99736.72;;;12.65;100.00
45050;BME280;61798;48.048;-1.928;2023-04-22T09:47:36;99736.44;;;12.24;100.00
45050;BME280;61798;48.048;-1.928;2023-04-22T09:49:46;99754.66;;;12.22;100.00
45050;BME280;61798;48.048;-1.928;2023-04-22T09:51:56;99726.78;;;12.35;100.00
45050;BME280;61798;48.048;-1.928;2023-04-22T09:54:05;99744.19;;;12.63;100.00
45050;BME280;61798;48.048;-1.928;2023-04-22T09:56:13;99735.50;;;12.92;100.00
45050;BME280;61798;48.048;-1.928;2023-04-22T09:58:20;99733.19;;;13.08;100.00
45050;BME280;61798;48.048;-1.928;2023-04-22T10:00:30;99741.38;;;13.01;100.00
45050;BME280;61798;48.048;-1.928;2023-04-22T10:02:35;99751.00;;;12.66;100.00
45050;BME280;61798;48.048;-1.928;2023-04-22T10:04:43;99732.56;;;13.06;100.00
45050;BME280;61798;48.048;-1.928;2023-04-22T10:06:52;99743.25;;;13.13;100.00
45050;BME280;61798;48.048;-1.928;2023-04-22T10:08:58;99729.88;;;13.06;100.00
45050;BME280;61798;48.048;-1.928;2023-04-22T10:11:04;99747.22;;;13.46;100.00
45050;BME280;61798;48.048;-1.928;2023-04-22T10:13:11;99732.59;;;13.42;100.00
45050;BME280;61798;48.048;-1.928;2023-04-22T10:15:17;99743.81;;;13.51;100.00
45050;BME280;61798;48.048;-1.928;2023-04-22T10:17:23;99743.34;;;13.30;100.00
45050;BME280;61798;48.048;-1.928;2023-04-22T10:19:31;99747.56;;;13.26;100.00
45050;BME280;61798;48.048;-1.928;2023-04-22T10:21:40;99733.66;;;13.29;100.00
45050;BME280;61798;48.048;-1.928;2023-04-22T10:23:50;99704.75;;;13.36;100.00
45050;BME280;61798;48.048;-1.928;2023-04-22T10:25:56;99742.44;;;13.84;100.00
45050;BME280;61798;48.048;-1.928;2023-04-22T10:28:07;99753.59;;;14.05;100.00
45050;BME280;61798;48.048;-1.928;2023-04-22T10:30:26;99751.38;;;14.02;100.00
45050;BME280;61798;48.048;-1.928;2023-04-22T10:32:32;99728.13;;;13.84;100.00
45050;BME280;61798;48.048;-1.928;2023-04-22T10:34:40;99744.53;;;13.58;100.00
45050;BME280;61798;48.048;-1.928;2023-04-22T10:37:00;99750.28;;;13.74;100.00
45050;BME280;61798;48.048;-1.928;2023-04-22T10:39:15;99729.38;;;13.93;100.00
45050;BME280;61798;48.048;-1.928;2023-04-22T10:41:22;99749.47;;;14.15;100.00
45050;BME280;61798;48.048;-1.928;2023-04-22T10:43:48;99748.31;;;14.11;100.00
45050;BME280;61798;48.048;-1.928;2023-04-22T10:45:59;99744.72;;;14.34;100.00
45050;BME280;61798;48.048;-1.928;2023-04-22T10:48:05;99737.84;;;14.56;100.00
45050;BME280;61798;48.048;-1.928;2023-04-22T10:50:30;99748.41;;;14.75;100.00
45050;BME280;61798;48.048;-1.928;2023-04-22T10:52:36;99747.09;;;14.77;100.00
45050;BME280;61798;48.048;-1.928;2023-04-22T10:59:16;99735.59;;;14.82;100.00
45050;BME280;61798;48.048;-1.928;2023-04-22T11:01:22;99733.50;;;14.55;100.00
45050;BME280;61798;48.048;-1.928;2023-04-22T11:03:29;99735.75;;;14.75;100.00
45050;BME280;61798;48.048;-1.928;2023-04-22T11:05:36;99740.22;;;14.69;100.00
45050;BME280;61798;48.048;-1.928;2023-04-22T11:07:43;99745.88;;;14.68;100.00
45050;BME280;61798;48.048;-1.928;2023-04-22T11:09:53;99743.50;;;14.72;100.00